Rockford, Washington
Current Conditions -  °F | °C
As of 2:53 PM on Friday 28 Nov 2014 (Local Time) from KSFF Reporting Station
Light Rain Light Rain  
Wind Chill: 12°   Ceiling: 6000
Heat Index: 12°   Visibility: 10mi
Dew Point:   Wind: 22mph
Humidity: 64%   Direction: 220°SW
Pressure: 29.34"   Gusts: 37mph
Location:  47.45°N, 117.13°W
Report Text: KSFF 282253Z 22019G32KT 10SM -RA BKN060 OVC075 12/05 A2934 RMK AO2 PK WND 21036/2225 RAB40 SLP933 P0000 T01170050
Loading
Personal Weather Stations






























Interactive Weather Map New forecast layout! Learn more

10-Day Weather Forecast

Advertisements
Track Severe Weather on mobile